Time;durP1;ratioP1;P1;durP2;ratioP2;P2;SDS_P1;SDS_P2;PMS_P1;PMS_P2;Temp;Humidity;BMP_temperature;BMP_pressure;BME280_temperature;BME280_humidity;BME280_pressure;Samples;Min_cycle;Max_cycle;Signal;HPM_P1;HPM_P2
2023/10/13 00:01:37;;;;;;;10.60;4.82;;;;;;;;;;4812291;29;20045;-80
2023/10/13 00:04:22;;;;;;;10.52;5.45;;;;;;;;;;4831582;29;20049;-78
2023/10/13 00:07:09;;;;;;;11.00;6.35;;;;;;;;;;4818378;29;20042;-80
2023/10/13 00:09:53;;;;;;;12.00;5.93;;;;;;;;;;4811560;29;20072;-79
2023/10/13 00:12:38;;;;;;;11.25;5.53;;;;;;;;;;4825305;29;20056;-78
2023/10/13 00:15:27;;;;;;;13.23;5.32;;;;;;;;;;4825381;29;20060;-77
2023/10/13 00:18:12;;;;;;;10.43;5.43;;;;;;;;;;4819223;29;20049;-80
2023/10/13 00:20:57;;;;;;;10.57;5.53;;;;;;;;;;4818027;29;20459;-78
2023/10/13 00:23:53;;;;;;;10.30;5.43;;;;;;;;;;4831625;29;20418;-79
2023/10/13 00:26:42;;;;;;;11.43;6.07;;;;;;;;;;4833644;29;20053;-79
2023/10/13 00:29:30;;;;;;;16.83;7.78;;;;;;;;;;4834079;29;20053;-78
2023/10/13 00:32:16;;;;;;;16.33;8.75;;;;;;;;;;4820162;29;20060;-77
2023/10/13 00:35:05;;;;;;;17.05;8.10;;;;;;;;;;4826590;29;20061;-79
2023/10/13 00:37:54;;;;;;;14.27;7.97;;;;;;;;;;4826260;29;20394;-81
2023/10/13 00:46:13;;;;;;;12.98;7.20;;;;;;;;;;4825932;29;20065;-80
2023/10/13 00:48:57;;;;;;;11.70;7.25;;;;;;;;;;4831978;29;20434;-79
2023/10/13 00:51:47;;;;;;;15.40;7.60;;;;;;;;;;4831845;29;20068;-77
2023/10/13 00:54:35;;;;;;;13.10;6.75;;;;;;;;;;4831734;29;20397;-80
2023/10/13 00:57:26;;;;;;;14.30;6.75;;;;;;;;;;4831294;29;20069;-81
2023/10/13 01:00:24;;;;;;;13.88;6.88;;;;;;;;;;4831519;29;20420;-81
2023/10/13 01:03:09;;;;;;;13.75;6.50;;;;;;;;;;4810416;29;20076;-80
2023/10/13 01:05:56;;;;;;;9.95;6.15;;;;;;;;;;4816863;29;20513;-80
2023/10/13 01:08:44;;;;;;;12.05;5.35;;;;;;;;;;4817019;29;20046;-78
2023/10/13 01:11:29;;;;;;;11.23;5.60;;;;;;;;;;4817101;29;20056;-78
2023/10/13 01:14:17;;;;;;;14.13;6.10;;;;;;;;;;4825443;29;20512;-79
2023/10/13 01:17:03;;;;;;;10.65;5.60;;;;;;;;;;4817014;29;20064;-81
2023/10/13 01:19:49;;;;;;;7.30;4.68;;;;;;;;;;4824798;29;20085;-78
2023/10/13 01:22:36;;;;;;;10.82;5.07;;;;;;;;;;4824751;29;20499;-79
2023/10/13 01:25:27;;;;;;;7.55;5.13;;;;;;;;;;4825748;29;20084;-80
2023/10/13 01:28:16;;;;;;;9.65;5.35;;;;;;;;;;4834125;29;20557;-80
2023/10/13 01:31:01;;;;;;;9.30;4.82;;;;;;;;;;4813454;29;20053;-82
2023/10/13 01:33:47;;;;;;;10.32;5.15;;;;;;;;;;4818472;29;20130;-79
2023/10/13 01:36:36;;;;;;;8.77;5.18;;;;;;;;;;4825346;29;20481;-79
2023/10/13 01:39:26;;;;;;;8.32;5.10;;;;;;;;;;4816194;29;20041;-80
2023/10/13 01:42:14;;;;;;;9.13;5.07;;;;;;;;;;4831533;29;20042;-79
2023/10/13 01:45:05;;;;;;;10.90;5.28;;;;;;;;;;4817087;29;20058;-77
2023/10/13 01:47:50;;;;;;;10.27;5.50;;;;;;;;;;4826365;29;20417;-81
2023/10/13 01:50:36;;;;;;;13.13;6.00;;;;;;;;;;4824685;29;20064;-77
2023/10/13 01:53:22;;;;;;;11.90;6.38;;;;;;;;;;4817216;29;20056;-77
2023/10/13 01:56:10;;;;;;;11.18;5.43;;;;;;;;;;4817090;29;20416;-80
2023/10/13 01:58:56;;;;;;;8.13;5.60;;;;;;;;;;4823968;29;20493;-79
2023/10/13 02:01:42;;;;;;;14.25;5.88;;;;;;;;;;4815969;29;20379;-80
2023/10/13 02:04:27;;;;;;;15.80;7.78;;;;;;;;;;4816905;29;20609;-80
2023/10/13 02:07:15;;;;;;;19.08;8.07;;;;;;;;;;4823984;29;20048;-81
2023/10/13 02:10:05;;;;;;;16.90;9.27;;;;;;;;;;4824903;29;20060;-77
2023/10/13 02:12:55;;;;;;;20.35;9.60;;;;;;;;;;4824232;29;20521;-77
2023/10/13 02:15:42;;;;;;;17.48;9.75;;;;;;;;;;4816586;29;20061;-78
2023/10/13 02:18:33;;;;;;;16.45;10.45;;;;;;;;;;4816447;29;20517;-79
2023/10/13 02:21:18;;;;;;;23.08;11.30;;;;;;;;;;4816741;29;20504;-80
2023/10/13 02:24:05;;;;;;;17.05;10.45;;;;;;;;;;4815759;29;21245;-82
2023/10/13 02:26:51;;;;;;;24.73;11.35;;;;;;;;;;4832680;29;20065;-79
2023/10/13 02:29:39;;;;;;;18.50;10.35;;;;;;;;;;4834324;29;20073;-81
2023/10/13 02:32:26;;;;;;;17.88;9.50;;;;;;;;;;4827845;29;20403;-78
2023/10/13 02:35:17;;;;;;;27.17;10.43;;;;;;;;;;4819777;29;20093;-80
2023/10/13 02:38:10;;;;;;;23.73;9.25;;;;;;;;;;4827829;29;20052;-80
2023/10/13 02:40:56;;;;;;;19.25;9.85;;;;;;;;;;4826672;29;20394;-80
2023/10/13 02:43:43;;;;;;;19.38;9.00;;;;;;;;;;4827576;29;20112;-78
2023/10/13 02:46:29;;;;;;;17.45;8.82;;;;;;;;;;4828001;29;20504;-78
2023/10/13 02:49:19;;;;;;;16.30;9.18;;;;;;;;;;4833513;29;20420;-79
2023/10/13 02:52:08;;;;;;;20.33;9.07;;;;;;;;;;4827418;29;20525;-79
2023/10/13 02:54:55;;;;;;;17.38;8.93;;;;;;;;;;4819944;29;20798;-77
2023/10/13 02:57:40;;;;;;;20.35;9.50;;;;;;;;;;4819255;29;20489;-78
2023/10/13 03:00:31;;;;;;;15.23;9.27;;;;;;;;;;4827008;29;20405;-78
2023/10/13 03:03:18;;;;;;;19.10;9.05;;;;;;;;;;4833948;29;20398;-78
2023/10/13 03:06:03;;;;;;;16.55;9.65;;;;;;;;;;4833304;29;20065;-79
2023/10/13 03:08:48;;;;;;;16.65;9.57;;;;;;;;;;4813659;29;20068;-79
2023/10/13 03:11:34;;;;;;;20.02;9.85;;;;;;;;;;4834002;29;20060;-79
2023/10/13 03:14:56;;;;;;;17.95;9.38;;;;;;;;;;4828011;29;20057;-80
2023/10/13 03:17:35;;;;;;;16.83;9.48;;;;;;;;;;4819755;29;20057;-79
2023/10/13 03:20:33;;;;;;;17.67;9.55;;;;;;;;;;4821185;29;20052;-80
2023/10/13 03:23:18;;;;;;;22.27;11.15;;;;;;;;;;4830850;29;20268;-79
2023/10/13 03:26:08;;;;;;;24.52;11.82;;;;;;;;;;4822005;29;20060;-79
2023/10/13 03:28:56;;;;;;;26.10;12.05;;;;;;;;;;4827312;29;20057;-78
2023/10/13 03:31:45;;;;;;;20.88;10.00;;;;;;;;;;4827307;29;20421;-79
2023/10/13 03:34:30;;;;;;;21.63;10.00;;;;;;;;;;4833929;29;20072;-81
2023/10/13 03:43:10;;;;;;;20.88;11.43;;;;;;;;;;4832926;29;20499;-80
2023/10/13 03:46:07;;;;;;;16.40;9.35;;;;;;;;;;4832979;29;20401;-79
2023/10/13 03:48:54;;;;;;;27.75;14.77;;;;;;;;;;4832849;29;20398;-78
2023/10/13 03:51:39;;;;;;;26.25;15.07;;;;;;;;;;4832518;29;20060;-80
2023/10/13 03:54:27;;;;;;;27.83;14.45;;;;;;;;;;4832592;29;20829;-80
2023/10/13 03:57:16;;;;;;;36.38;18.83;;;;;;;;;;4832041;29;20494;-80
2023/10/13 04:00:08;;;;;;;26.55;14.45;;;;;;;;;;4832546;29;20115;-79
2023/10/13 04:06:02;;;;;;;20.35;9.77;;;;;;;;;;4831185;29;20068;-79
2023/10/13 04:08:57;;;;;;;22.17;10.68;;;;;;;;;;4832526;29;20072;-80
2023/10/13 04:12:21;;;;;;;20.27;9.32;;;;;;;;;;4831816;29;20402;-79
2023/10/13 04:17:48;;;;;;;13.32;6.90;;;;;;;;;;4831884;29;20504;-78
2023/10/13 04:20:33;;;;;;;13.45;6.03;;;;;;;;;;4818576;29;20072;-79
2023/10/13 04:23:19;;;;;;;25.13;6.53;;;;;;;;;;4831990;29;20402;-79
2023/10/13 04:26:21;;;;;;;11.88;5.65;;;;;;;;;;4832500;29;20073;-79
2023/10/13 04:29:10;;;;;;;13.27;6.90;;;;;;;;;;4832466;29;20491;-81
2023/10/13 04:32:00;;;;;;;12.43;7.03;;;;;;;;;;4831759;29;20070;-78
2023/10/13 04:34:51;;;;;;;9.55;5.93;;;;;;;;;;4831889;29;20484;-79
2023/10/13 04:40:58;;;;;;;14.23;6.28;;;;;;;;;;4832817;29;20060;-80
2023/10/13 04:43:55;;;;;;;15.25;6.45;;;;;;;;;;4832423;29;20057;-80
2023/10/13 04:49:49;;;;;;;14.23;7.07;;;;;;;;;;4825446;29;20402;-81
2023/10/13 05:05:45;;;;;;;20.83;7.22;;;;;;;;;;4826477;29;20053;-79
2023/10/13 05:48:12;;;;;;;14.75;8.10;;;;;;;;;;4831664;29;20066;-80
2023/10/13 06:30:40;;;;;;;14.25;6.95;;;;;;;;;;4833618;29;20057;-78
2023/10/13 06:33:28;;;;;;;20.98;7.70;;;;;;;;;;4827751;29;20057;-80
2023/10/13 06:36:13;;;;;;;13.38;7.25;;;;;;;;;;4826303;29;20068;-80
2023/10/13 06:42:02;;;;;;;19.90;7.82;;;;;;;;;;4826711;29;20425;-79
2023/10/13 06:44:48;;;;;;;25.58;8.63;;;;;;;;;;4833555;29;20496;-81
2023/10/13 06:47:39;;;;;;;18.58;10.77;;;;;;;;;;4812648;29;20516;-79
2023/10/13 06:50:28;;;;;;;20.20;11.23;;;;;;;;;;4833115;29;20061;-78
2023/10/13 06:53:14;;;;;;;12.00;6.80;;;;;;;;;;4832648;29;20064;-81
2023/10/13 06:55:58;;;;;;;21.08;6.68;;;;;;;;;;4827950;29;20657;-78
2023/10/13 06:58:46;;;;;;;22.25;6.88;;;;;;;;;;4833021;29;20498;-79
2023/10/13 07:01:38;;;;;;;13.77;6.45;;;;;;;;;;4832817;29;20065;-80
2023/10/13 07:04:23;;;;;;;16.40;6.63;;;;;;;;;;4832743;29;20057;-79
2023/10/13 07:07:10;;;;;;;15.35;8.10;;;;;;;;;;4833206;29;20072;-80
2023/10/13 07:09:55;;;;;;;18.40;7.78;;;;;;;;;;4831995;29;20064;-83
2023/10/13 07:12:44;;;;;;;15.70;8.68;;;;;;;;;;4831216;29;20493;-79
2023/10/13 07:15:30;;;;;;;17.67;10.48;;;;;;;;;;4833254;29;20414;-79
2023/10/13 07:18:17;;;;;;;20.95;10.98;;;;;;;;;;4827792;29;20073;-80
2023/10/13 07:21:09;;;;;;;29.08;10.85;;;;;;;;;;4819908;29;20053;-78
2023/10/13 07:24:07;;;;;;;23.50;10.43;;;;;;;;;;4832854;29;20497;-78
2023/10/13 07:27:02;;;;;;;18.25;9.50;;;;;;;;;;4832962;29;20056;-80
2023/10/13 07:29:49;;;;;;;15.98;8.68;;;;;;;;;;4818517;29;20520;-79
2023/10/13 07:32:35;;;;;;;16.98;8.02;;;;;;;;;;4827393;29;20069;-79
2023/10/13 07:35:20;;;;;;;18.35;9.60;;;;;;;;;;4832290;29;20048;-80
2023/10/13 07:38:07;;;;;;;18.58;7.05;;;;;;;;;;4832616;29;20065;-79
2023/10/13 07:40:53;;;;;;;15.38;8.15;;;;;;;;;;4831866;29;20413;-79
2023/10/13 07:43:39;;;;;;;18.92;7.50;;;;;;;;;;4831956;29;20093;-79
2023/10/13 07:46:31;;;;;;;16.15;7.70;;;;;;;;;;4831982;29;20053;-79
2023/10/13 07:49:16;;;;;;;15.75;7.07;;;;;;;;;;4825819;29;20124;-79
2023/10/13 07:55:14;;;;;;;15.13;6.80;;;;;;;;;;4797496;29;20057;-79
2023/10/13 07:57:59;;;;;;;16.75;6.30;;;;;;;;;;4832524;29;20235;-79
2023/10/13 08:03:34;;;;;;;12.20;6.63;;;;;;;;;;4824741;29;21201;-80
2023/10/13 08:06:21;;;;;;;13.27;6.90;;;;;;;;;;4832414;29;20072;-80
2023/10/13 08:09:07;;;;;;;14.70;6.97;;;;;;;;;;4831829;29;20418;-77
2023/10/13 08:11:54;;;;;;;185.13;126.53;;;;;;;;;;4824685;29;20052;-78
2023/10/13 08:14:41;;;;;;;475.08;365.23;;;;;;;;;;4832104;29;20524;-79
2023/10/13 08:17:31;;;;;;;14.10;7.18;;;;;;;;;;4826086;29;20493;-77
2023/10/13 08:20:17;;;;;;;115.50;79.00;;;;;;;;;;4825582;29;20510;-80
2023/10/13 08:23:20;;;;;;;18.23;8.63;;;;;;;;;;4831531;29;20072;-79
2023/10/13 08:32:19;;;;;;;14.75;5.88;;;;;;;;;;4831898;29;20064;-79
2023/10/13 08:40:43;;;;;;;10.82;5.55;;;;;;;;;;4825710;29;20052;-81
2023/10/13 08:43:43;;;;;;;11.98;5.47;;;;;;;;;;4832302;29;20512;-81
2023/10/13 08:46:31;;;;;;;13.80;5.53;;;;;;;;;;4832858;29;20048;-79
2023/10/13 08:49:16;;;;;;;16.85;5.65;;;;;;;;;;4813126;29;20061;-77
2023/10/13 08:52:38;;;;;;;12.68;5.60;;;;;;;;;;4833253;29;20680;-81
2023/10/13 08:58:20;;;;;;;13.55;6.00;;;;;;;;;;4832158;29;20057;-80
2023/10/13 09:01:12;;;;;;;11.43;4.65;;;;;;;;;;4826145;29;20310;-81
2023/10/13 09:04:20;;;;;;;11.70;4.70;;;;;;;;;;4825780;29;20064;-80
2023/10/13 09:12:38;;;;;;;14.70;4.82;;;;;;;;;;4834202;29;20401;-81
2023/10/13 09:15:59;;;;;;;12.18;4.72;;;;;;;;;;4834039;29;20048;-81
2023/10/13 09:18:49;;;;;;;10.30;4.53;;;;;;;;;;4831544;29;20053;-77
2023/10/13 09:24:31;;;;;;;14.70;4.82;;;;;;;;;;4824770;29;20430;-81
2023/10/13 09:27:16;;;;;;;11.23;4.10;;;;;;;;;;4817383;29;20053;-82
2023/10/13 09:30:22;;;;;;;11.88;5.00;;;;;;;;;;4825502;29;20052;-78
2023/10/13 09:33:15;;;;;;;9.43;4.30;;;;;;;;;;4831299;29;20477;-79
2023/10/13 09:36:00;;;;;;;12.87;4.23;;;;;;;;;;4824679;29;20050;-77
2023/10/13 09:39:01;;;;;;;10.63;4.20;;;;;;;;;;4830721;29;20394;-78
2023/10/13 09:41:55;;;;;;;12.82;3.95;;;;;;;;;;4830416;29;20061;-80
2023/10/13 09:44:40;;;;;;;12.80;4.60;;;;;;;;;;4831224;29;20434;-81
2023/10/13 09:47:30;;;;;;;13.65;4.47;;;;;;;;;;4829922;29;20064;-78
2023/10/13 09:50:24;;;;;;;11.90;3.75;;;;;;;;;;4830724;29;20489;-81
2023/10/13 09:53:10;;;;;;;10.18;4.60;;;;;;;;;;4831263;29;20505;-77
2023/10/13 09:56:11;;;;;;;13.20;4.10;;;;;;;;;;4830612;29;20493;-80
2023/10/13 09:59:00;;;;;;;11.68;4.30;;;;;;;;;;4830933;29;20468;-77
2023/10/13 10:01:51;;;;;;;10.68;4.38;;;;;;;;;;4829828;29;20068;-78
2023/10/13 10:04:50;;;;;;;10.48;4.20;;;;;;;;;;4810176;29;20072;-78
2023/10/13 10:07:36;;;;;;;10.38;4.35;;;;;;;;;;4824152;29;20072;-79
2023/10/13 10:10:24;;;;;;;11.38;4.28;;;;;;;;;;4830731;29;20397;-77
2023/10/13 10:13:16;;;;;;;13.88;4.20;;;;;;;;;;4831552;29;20056;-77
2023/10/13 10:16:08;;;;;;;11.85;4.38;;;;;;;;;;4825038;29;20413;-77
2023/10/13 10:19:01;;;;;;;19.42;4.00;;;;;;;;;;4832999;29;20500;-78
2023/10/13 10:21:48;;;;;;;13.82;3.95;;;;;;;;;;4827794;29;20066;-78
2023/10/13 10:24:36;;;;;;;12.90;4.38;;;;;;;;;;4813486;29;20060;-80
2023/10/13 10:27:32;;;;;;;19.10;4.70;;;;;;;;;;4831249;29;20056;-79
2023/10/13 10:30:24;;;;;;;17.02;4.88;;;;;;;;;;4830225;29;20060;-80
2023/10/13 10:33:13;;;;;;;11.07;4.28;;;;;;;;;;4828764;29;20072;-80
2023/10/13 10:35:59;;;;;;;13.02;4.80;;;;;;;;;;4828662;29;20401;-79
2023/10/13 10:38:59;;;;;;;11.80;4.57;;;;;;;;;;4829661;29;20477;-81
2023/10/13 10:41:51;;;;;;;11.13;4.35;;;;;;;;;;4829898;29;20060;-80
2023/10/13 10:44:42;;;;;;;15.75;4.43;;;;;;;;;;4818020;29;20423;-79
2023/10/13 10:47:31;;;;;;;12.13;4.35;;;;;;;;;;4830058;29;20072;-80
2023/10/13 10:50:27;;;;;;;12.98;4.47;;;;;;;;;;4832215;29;20072;-81
2023/10/13 10:53:12;;;;;;;12.63;4.72;;;;;;;;;;4825395;29;20068;-81
2023/10/13 10:56:04;;;;;;;13.23;5.10;;;;;;;;;;4831876;29;20056;-81
2023/10/13 10:58:55;;;;;;;11.65;4.30;;;;;;;;;;4827413;29;20070;-78
2023/10/13 11:01:46;;;;;;;10.52;4.78;;;;;;;;;;4829126;29;20402;-81
2023/10/13 11:04:34;;;;;;;11.25;4.25;;;;;;;;;;4832759;29;20401;-80
2023/10/13 11:07:27;;;;;;;8.65;4.00;;;;;;;;;;4833097;29;20425;-80
2023/10/13 11:10:19;;;;;;;11.80;4.95;;;;;;;;;;4823222;29;20053;-82
2023/10/13 11:13:21;;;;;;;15.38;5.10;;;;;;;;;;4834320;29;20516;-78
2023/10/13 11:16:08;;;;;;;9.98;4.80;;;;;;;;;;4835681;29;20053;-80
2023/10/13 11:19:05;;;;;;;18.60;5.13;;;;;;;;;;4834473;29;20054;-79
2023/10/13 11:21:49;;;;;;;13.25;5.00;;;;;;;;;;4827145;29;20057;-80
2023/10/13 11:24:39;;;;;;;12.40;5.38;;;;;;;;;;4829040;29;20068;-82
2023/10/13 11:27:44;;;;;;;13.10;4.88;;;;;;;;;;4832320;29;20052;-80
2023/10/13 11:33:29;;;;;;;13.55;5.53;;;;;;;;;;4835506;29;20057;-80
2023/10/13 11:36:17;;;;;;;16.15;5.20;;;;;;;;;;4829508;29;20044;-78
2023/10/13 11:39:07;;;;;;;14.20;4.93;;;;;;;;;;4828096;29;20447;-82
2023/10/13 11:41:55;;;;;;;11.77;5.50;;;;;;;;;;4834354;29;20064;-80
2023/10/13 11:44:43;;;;;;;19.00;5.22;;;;;;;;;;4834101;29;20064;-80
2023/10/13 11:50:35;;;;;;;14.63;5.00;;;;;;;;;;4828404;29;20409;-80
2023/10/13 11:53:20;;;;;;;15.13;4.93;;;;;;;;;;4832681;29;20485;-81
2023/10/13 11:56:09;;;;;;;13.63;4.15;;;;;;;;;;4834097;29;20402;-80
2023/10/13 11:59:01;;;;;;;11.73;4.72;;;;;;;;;;4832129;29;20052;-78
2023/10/13 12:04:57;;;;;;;17.73;5.03;;;;;;;;;;4832466;29;20045;-80
2023/10/13 12:07:48;;;;;;;13.13;4.30;;;;;;;;;;4826486;29;20120;-80
2023/10/13 12:10:33;;;;;;;14.38;5.15;;;;;;;;;;4826238;29;20068;-80
2023/10/13 12:13:19;;;;;;;15.55;4.30;;;;;;;;;;4818765;29;20493;-80
2023/10/13 12:16:08;;;;;;;15.35;4.22;;;;;;;;;;4831888;29;20496;-80
2023/10/13 12:18:54;;;;;;;10.57;4.45;;;;;;;;;;4818581;29;20076;-81
2023/10/13 12:21:40;;;;;;;14.63;4.93;;;;;;;;;;4827044;29;20064;-80
2023/10/13 12:27:34;;;;;;;13.45;5.05;;;;;;;;;;4826637;29;20136;-80
2023/10/13 12:30:35;;;;;;;15.05;4.78;;;;;;;;;;4817547;29;20080;-80
2023/10/13 12:33:36;;;;;;;15.35;4.55;;;;;;;;;;4831941;29;20080;-79
2023/10/13 12:51:40;;;;;;;15.15;4.75;;;;;;;;;;4823106;29;20048;-80
2023/10/13 12:54:35;;;;;;;22.63;5.43;;;;;;;;;;4826717;29;20061;-81
2023/10/13 12:57:22;;;;;;;17.52;4.78;;;;;;;;;;4829167;29;20485;-81
2023/10/13 13:00:19;;;;;;;17.52;4.97;;;;;;;;;;4825729;29;20536;-80
2023/10/13 13:03:11;;;;;;;12.30;4.40;;;;;;;;;;4831380;29;20413;-80
2023/10/13 13:05:56;;;;;;;10.75;4.90;;;;;;;;;;4831402;29;20497;-79
2023/10/13 13:08:44;;;;;;;12.90;5.03;;;;;;;;;;4826684;29;20064;-81
2023/10/13 13:11:29;;;;;;;18.63;5.00;;;;;;;;;;4832175;29;20069;-81
2023/10/13 13:14:14;;;;;;;14.55;5.20;;;;;;;;;;4818768;29;20398;-79
2023/10/13 13:17:06;;;;;;;14.45;5.13;;;;;;;;;;4832347;29;20402;-82
2023/10/13 13:19:50;;;;;;;15.18;5.07;;;;;;;;;;4828996;29;20057;-83
2023/10/13 13:22:35;;;;;;;17.55;5.22;;;;;;;;;;4831192;29;20064;-82
2023/10/13 13:25:29;;;;;;;16.77;5.05;;;;;;;;;;4827362;29;20131;-79
2023/10/13 13:28:15;;;;;;;23.20;6.00;;;;;;;;;;4825969;29;20484;-82
2023/10/13 13:31:00;;;;;;;16.10;5.65;;;;;;;;;;4825324;29;20049;-83
2023/10/13 13:33:45;;;;;;;14.73;5.40;;;;;;;;;;4831697;29;20422;-80
2023/10/13 13:36:30;;;;;;;12.43;5.38;;;;;;;;;;4831285;29;20066;-82
2023/10/13 13:39:18;;;;;;;13.90;4.57;;;;;;;;;;4817162;29;20493;-78
2023/10/13 13:42:04;;;;;;;11.73;5.40;;;;;;;;;;4820387;29;20505;-80
2023/10/13 13:44:49;;;;;;;13.18;5.35;;;;;;;;;;4830988;29;20076;-82
2023/10/13 13:47:34;;;;;;;12.27;5.40;;;;;;;;;;4831608;29;20490;-81
2023/10/13 13:50:24;;;;;;;16.27;5.18;;;;;;;;;;4817117;29;20390;-82
2023/10/13 13:53:11;;;;;;;15.90;5.10;;;;;;;;;;4831077;29;20250;-79
2023/10/13 13:56:02;;;;;;;16.00;4.63;;;;;;;;;;4830468;29;20496;-82
2023/10/13 13:58:48;;;;;;;12.75;4.22;;;;;;;;;;4830924;29;20510;-81
2023/10/13 14:01:37;;;;;;;10.38;4.07;;;;;;;;;;4830783;29;20100;-80
2023/10/13 14:04:22;;;;;;;13.65;4.15;;;;;;;;;;4817281;29;20714;-80
2023/10/13 14:07:07;;;;;;;12.75;3.83;;;;;;;;;;4831227;29;20052;-81
2023/10/13 14:09:52;;;;;;;12.00;4.60;;;;;;;;;;4817513;29;20425;-80
2023/10/13 14:12:44;;;;;;;12.60;4.13;;;;;;;;;;4818770;29;20505;-80
2023/10/13 14:15:32;;;;;;;12.93;4.30;;;;;;;;;;4829846;29;20053;-79
2023/10/13 14:18:18;;;;;;;19.70;4.38;;;;;;;;;;4829288;29;20053;-80
2023/10/13 14:21:03;;;;;;;11.77;4.22;;;;;;;;;;4830720;29;20056;-79
2023/10/13 14:23:51;;;;;;;11.23;4.28;;;;;;;;;;4825806;29;20060;-81
2023/10/13 14:26:37;;;;;;;8.57;4.28;;;;;;;;;;4834998;29;20129;-79
2023/10/13 14:29:26;;;;;;;8.40;3.90;;;;;;;;;;4834158;29;20049;-82
2023/10/13 14:32:13;;;;;;;21.80;5.07;;;;;;;;;;4826887;29;20034;-81
2023/10/13 14:34:58;;;;;;;20.88;7.45;;;;;;;;;;4834108;29;20061;-80
2023/10/13 14:37:43;;;;;;;14.27;5.82;;;;;;;;;;4830502;29;20076;-80
2023/10/13 14:40:29;;;;;;;18.88;6.07;;;;;;;;;;4822111;29;20390;-79
2023/10/13 14:43:14;;;;;;;21.50;5.63;;;;;;;;;;4833744;29;20064;-79
2023/10/13 14:46:00;;;;;;;10.52;5.05;;;;;;;;;;4814074;29;20497;-82
2023/10/13 14:48:48;;;;;;;10.98;5.18;;;;;;;;;;4824663;29;20412;-83
2023/10/13 14:51:39;;;;;;;10.88;5.05;;;;;;;;;;4812722;29;20084;-80
2023/10/13 14:54:34;;;;;;;16.52;5.30;;;;;;;;;;4834215;29;20393;-81
2023/10/13 14:57:24;;;;;;;22.15;5.45;;;;;;;;;;4832963;29;20410;-79
2023/10/13 15:00:13;;;;;;;20.70;6.15;;;;;;;;;;4835919;29;20466;-78
2023/10/13 15:03:01;;;;;;;22.58;6.43;;;;;;;;;;4835240;29;20065;-80
2023/10/13 15:05:46;;;;;;;17.35;5.53;;;;;;;;;;4820052;29;20060;-80
2023/10/13 15:08:31;;;;;;;20.17;6.05;;;;;;;;;;4834410;29;20410;-80
2023/10/13 15:11:19;;;;;;;20.05;5.97;;;;;;;;;;4834319;29;20398;-81
2023/10/13 15:14:07;;;;;;;11.88;5.55;;;;;;;;;;4819814;29;20053;-81
2023/10/13 15:16:53;;;;;;;16.23;4.90;;;;;;;;;;4831988;29;20054;-80
2023/10/13 15:19:39;;;;;;;15.27;5.70;;;;;;;;;;4833546;29;20501;-81
2023/10/13 15:22:27;;;;;;;24.55;5.50;;;;;;;;;;4819923;29;20417;-81
2023/10/13 15:25:28;;;;;;;22.73;6.63;;;;;;;;;;4830362;29;20505;-80
2023/10/13 15:28:14;;;;;;;21.00;8.32;;;;;;;;;;4827077;29;20123;-79
2023/10/13 15:31:10;;;;;;;19.08;8.45;;;;;;;;;;4819311;29;20056;-82
2023/10/13 15:33:55;;;;;;;25.70;8.73;;;;;;;;;;4827700;29;20048;-78
2023/10/13 15:36:42;;;;;;;21.80;8.32;;;;;;;;;;4821441;29;20072;-81
2023/10/13 15:39:28;;;;;;;21.17;9.05;;;;;;;;;;4819908;29;20135;-81
2023/10/13 15:42:14;;;;;;;15.75;7.97;;;;;;;;;;4818445;29;20507;-79
2023/10/13 15:45:00;;;;;;;19.38;7.70;;;;;;;;;;4831108;29;20052;-79
2023/10/13 15:47:45;;;;;;;13.35;5.65;;;;;;;;;;4817480;29;20048;-81
2023/10/13 15:50:39;;;;;;;16.58;6.07;;;;;;;;;;4830689;29;20402;-79
2023/10/13 15:53:25;;;;;;;16.35;5.95;;;;;;;;;;4833098;29;20078;-80
2023/10/13 15:56:17;;;;;;;17.23;6.05;;;;;;;;;;4831433;29;20084;-81
2023/10/13 15:59:02;;;;;;;14.80;6.50;;;;;;;;;;4834729;29;20689;-83
2023/10/13 16:01:48;;;;;;;20.60;7.05;;;;;;;;;;4829560;29;20051;-81
2023/10/13 16:04:33;;;;;;;24.38;7.75;;;;;;;;;;4829226;29;20513;-80
2023/10/13 16:07:21;;;;;;;17.60;7.20;;;;;;;;;;4831161;29;20049;-81
2023/10/13 16:10:11;;;;;;;18.25;6.68;;;;;;;;;;4832634;29;20045;-84
2023/10/13 16:12:59;;;;;;;34.20;9.85;;;;;;;;;;4811929;29;20052;-80
2023/10/13 16:15:47;;;;;;;39.17;17.25;;;;;;;;;;4831775;29;20056;-81
2023/10/13 16:18:32;;;;;;;39.75;15.05;;;;;;;;;;4824221;29;20398;-80
2023/10/13 16:21:18;;;;;;;38.67;18.33;;;;;;;;;;4832204;29;20489;-83
2023/10/13 16:24:04;;;;;;;39.70;19.52;;;;;;;;;;4830252;29;20056;-81
2023/10/13 16:26:55;;;;;;;50.05;19.85;;;;;;;;;;4818349;29;20073;-80
2023/10/13 16:29:42;;;;;;;55.10;26.13;;;;;;;;;;4826935;29;20418;-81
2023/10/13 16:32:28;;;;;;;88.18;34.80;;;;;;;;;;4830337;29;20493;-80
2023/10/13 16:35:18;;;;;;;212.15;107.47;;;;;;;;;;4817426;29;20064;-79
2023/10/13 16:38:06;;;;;;;122.50;62.58;;;;;;;;;;4827413;29;20064;-79
2023/10/13 16:40:53;;;;;;;121.20;61.90;;;;;;;;;;4831217;29;20052;-78
2023/10/13 16:43:39;;;;;;;176.95;96.22;;;;;;;;;;4831631;29;20505;-79
2023/10/13 16:46:25;;;;;;;236.88;134.43;;;;;;;;;;4818034;29;20512;-81
2023/10/13 16:49:11;;;;;;;248.98;135.68;;;;;;;;;;4832666;29;20064;-81
2023/10/13 16:51:56;;;;;;;233.25;122.80;;;;;;;;;;4832027;29;20072;-80
2023/10/13 16:54:42;;;;;;;193.52;104.28;;;;;;;;;;4828584;29;20048;-79
2023/10/13 16:57:27;;;;;;;181.73;100.20;;;;;;;;;;4834198;29;20065;-81
2023/10/13 17:00:13;;;;;;;133.50;69.40;;;;;;;;;;4831235;29;20057;-79
2023/10/13 17:02:58;;;;;;;128.45;67.25;;;;;;;;;;4816524;29;20838;-82
2023/10/13 17:05:43;;;;;;;75.80;41.40;;;;;;;;;;4831928;29;20064;-80
2023/10/13 17:08:29;;;;;;;57.75;32.30;;;;;;;;;;4831467;29;20052;-78
2023/10/13 17:11:15;;;;;;;53.53;29.27;;;;;;;;;;4831532;29;20068;-79
2023/10/13 17:14:05;;;;;;;42.03;20.52;;;;;;;;;;4824514;29;20064;-78
2023/10/13 17:16:50;;;;;;;46.10;18.95;;;;;;;;;;4817011;29;20489;-81
2023/10/13 17:19:36;;;;;;;63.35;24.83;;;;;;;;;;4819127;29;20395;-79
2023/10/13 17:22:20;;;;;;;63.03;24.08;;;;;;;;;;4829179;29;20052;-80
2023/10/13 17:25:06;;;;;;;45.38;16.35;;;;;;;;;;4824330;29;20121;-79
2023/10/13 17:27:52;;;;;;;42.00;12.98;;;;;;;;;;4829108;29;20057;-78
2023/10/13 17:30:37;;;;;;;33.50;10.93;;;;;;;;;;4822525;29;20100;-81
2023/10/13 17:33:24;;;;;;;24.95;10.60;;;;;;;;;;4824303;29;20481;-79
2023/10/13 17:36:10;;;;;;;30.20;10.70;;;;;;;;;;4824757;29;20398;-81
2023/10/13 17:38:55;;;;;;;23.30;9.95;;;;;;;;;;4831290;29;20048;-77
2023/10/13 17:41:40;;;;;;;25.60;9.13;;;;;;;;;;4831707;29;20052;-80
2023/10/13 17:44:25;;;;;;;24.65;10.65;;;;;;;;;;4830647;29;20062;-80
2023/10/13 17:47:11;;;;;;;25.88;10.63;;;;;;;;;;4830908;29;20073;-80
2023/10/13 17:50:00;;;;;;;26.02;10.75;;;;;;;;;;4831457;29;20516;-80
2023/10/13 17:52:47;;;;;;;26.88;11.43;;;;;;;;;;4830713;29;20417;-80
2023/10/13 17:55:32;;;;;;;29.30;12.85;;;;;;;;;;4829114;29;20754;-80
2023/10/13 17:58:21;;;;;;;33.63;15.68;;;;;;;;;;4821044;29;20069;-80
2023/10/13 18:01:07;;;;;;;35.83;15.02;;;;;;;;;;4834615;29;20057;-80
2023/10/13 18:03:53;;;;;;;42.90;17.75;;;;;;;;;;4831257;29;20057;-82
2023/10/13 18:06:37;;;;;;;50.60;21.92;;;;;;;;;;4816532;29;20073;-78
2023/10/13 18:09:23;;;;;;;46.55;24.02;;;;;;;;;;4829901;29;20068;-79
2023/10/13 18:12:10;;;;;;;85.35;30.90;;;;;;;;;;4832055;29;20497;-80
2023/10/13 18:14:56;;;;;;;58.95;25.52;;;;;;;;;;4818323;29;20072;-79
2023/10/13 18:17:41;;;;;;;42.47;19.30;;;;;;;;;;4834774;29;20492;-79
2023/10/13 18:20:28;;;;;;;33.00;16.67;;;;;;;;;;4833069;29;20048;-80
2023/10/13 18:23:14;;;;;;;29.08;13.30;;;;;;;;;;4818816;29;20060;-79
2023/10/13 18:25:59;;;;;;;26.65;11.13;;;;;;;;;;4832266;29;20049;-81
2023/10/13 18:28:44;;;;;;;25.83;10.60;;;;;;;;;;4833697;29;20406;-80
2023/10/13 18:31:30;;;;;;;17.48;9.25;;;;;;;;;;4830180;29;20389;-83
2023/10/13 18:34:16;;;;;;;20.00;9.95;;;;;;;;;;4830907;29;20053;-78
2023/10/13 18:37:01;;;;;;;26.15;9.27;;;;;;;;;;4831230;29;20504;-79
2023/10/13 18:39:47;;;;;;;25.15;10.57;;;;;;;;;;4830783;29;20061;-80
2023/10/13 18:42:32;;;;;;;40.83;17.52;;;;;;;;;;4830756;29;20304;-79
2023/10/13 18:45:27;;;;;;;48.40;22.95;;;;;;;;;;4831280;29;20531;-81
2023/10/13 18:48:14;;;;;;;62.83;27.97;;;;;;;;;;4830561;29;20061;-79
2023/10/13 18:50:59;;;;;;;150.73;107.35;;;;;;;;;;4835434;29;20462;-80
2023/10/13 18:53:48;;;;;;;59.67;31.90;;;;;;;;;;4840155;29;20064;-81
2023/10/13 18:56:33;;;;;;;48.70;21.95;;;;;;;;;;4832116;29;20430;-80
2023/10/13 18:59:19;;;;;;;40.65;19.02;;;;;;;;;;4832042;29;20068;-81
2023/10/13 19:02:03;;;;;;;37.55;17.88;;;;;;;;;;4814466;29;20066;-79
2023/10/13 19:04:48;;;;;;;38.65;16.63;;;;;;;;;;4830666;29;20478;-80
2023/10/13 19:07:34;;;;;;;35.28;14.75;;;;;;;;;;4830259;29;20065;-78
2023/10/13 19:10:19;;;;;;;29.98;13.70;;;;;;;;;;4827099;29;20066;-81
2023/10/13 19:13:05;;;;;;;37.45;16.25;;;;;;;;;;4828479;29;20525;-81
2023/10/13 19:15:49;;;;;;;38.90;15.88;;;;;;;;;;4828827;29;20402;-81
2023/10/13 19:18:35;;;;;;;36.50;15.30;;;;;;;;;;4827895;29;20066;-81
2023/10/13 19:21:20;;;;;;;34.05;14.63;;;;;;;;;;4827791;29;20498;-81
2023/10/13 19:24:06;;;;;;;29.67;13.18;;;;;;;;;;4826966;29;20053;-81
2023/10/13 19:26:53;;;;;;;35.97;15.57;;;;;;;;;;4815905;29;20488;-82